Time;durP1;ratioP1;P1;durP2;ratioP2;P2;SDS_P1;SDS_P2;PMS_P1;PMS_P2;Temp;Humidity;BMP_temperature;BMP_pressure;BME280_temperature;BME280_humidity;BME280_pressure;Samples;Min_cycle;Max_cycle;Signal;HPM_P1;HPM_P2
2022/09/27 00:00:04;;;;;;;;;;;;;;;;;;5086726;28;20344;-70
2022/09/27 00:02:31;;;;;;;;;;;;;;;;;;5083195;28;19932;-70
2022/09/27 00:04:58;;;;;;;;;;;;;;;;;;5081909;28;20367;-70
2022/09/27 00:07:25;;;;;;;;;;;;;;;;;;5088235;28;19932;-70
2022/09/27 00:09:52;;;;;;;;;;;;;;;;;;5080982;28;19928;-70
2022/09/27 00:12:19;;;;;;;;;;;;;;;;;;5081199;28;19935;-70
2022/09/27 00:14:46;;;;;;;;;;;;;;;;;;5088115;28;20015;-70
2022/09/27 00:17:13;;;;;;;;;;;;;;;;;;5082189;28;20430;-70
2022/09/27 00:19:40;;;;;;;;;;;;;;;;;;5089054;28;19936;-70
2022/09/27 00:22:08;;;;;;;;;;;;;;;;;;5086490;28;19950;-70
2022/09/27 00:24:35;;;;;;;;;;;;;;;;;;5087104;28;19998;-70
2022/09/27 00:27:02;;;;;;;;;;;;;;;;;;5087582;28;19931;-71
2022/09/27 00:29:29;;;;;;;;;;;;;;;;;;5078394;28;19924;-71
2022/09/27 00:31:56;;;;;;;;;;;;;;;;;;5090574;28;19931;-71
2022/09/27 00:34:23;;;;;;;;;;;;;;;;;;5087256;28;19977;-71
2022/09/27 00:36:50;;;;;;;;;;;;;;;;;;5078437;28;20398;-71
2022/09/27 00:39:17;;;;;;;;;;;;;;;;;;5087625;28;19929;-71
2022/09/27 00:41:44;;;;;;;;;;;;;;;;;;5083383;28;20379;-71
2022/09/27 00:44:11;;;;;;;;;;;;;;;;;;5076153;28;19932;-71
2022/09/27 00:46:38;;;;;;;;;;;;;;;;;;5086608;28;20341;-71
2022/09/27 00:49:05;;;;;;;;;;;;;;;;;;5079844;28;19928;-71
2022/09/27 00:51:32;;;;;;;;;;;;;;;;;;5089665;28;19936;-70
2022/09/27 00:53:59;;;;;;;;;;;;;;;;;;5084882;28;19932;-71
2022/09/27 00:56:26;;;;;;;;;;;;;;;;;;5083034;28;19932;-71
2022/09/27 00:58:53;;;;;;;;;;;;;;;;;;5079844;28;19928;-71
2022/09/27 01:01:20;;;;;;;;;;;;;;;;;;5080161;28;19924;-72
2022/09/27 01:03:47;;;;;;;;;;;;;;;;;;5079087;28;20294;-71
2022/09/27 01:06:14;;;;;;;;;;;;;;;;;;5084017;28;19932;-70
2022/09/27 01:08:41;;;;;;;;;;;;;;;;;;5081306;28;20026;-71
2022/09/27 01:11:08;;;;;;;;;;;;;;;;;;5083501;28;19935;-70
2022/09/27 01:13:35;;;;;;;;;;;;;;;;;;5079050;28;20349;-70
2022/09/27 01:16:02;;;;;;;;;;;;;;;;;;5080022;28;19928;-70
2022/09/27 01:18:29;;;;;;;;;;;;;;;;;;5083388;28;19924;-71
2022/09/27 01:20:56;;;;;;;;;;;;;;;;;;5082639;28;20019;-71
2022/09/27 01:23:23;;;;;;;;;;;;;;;;;;5085881;28;19936;-71
2022/09/27 01:25:51;;;;;;;;;;;;;;;;;;5081782;28;19950;-71
2022/09/27 01:28:18;;;;;;;;;;;;;;;;;;5088611;28;19982;-71
2022/09/27 01:30:44;;;;;;;;;;;;;;;;;;5083920;28;19981;-71
2022/09/27 01:33:11;;;;;;;;;;;;;;;;;;5085383;28;20382;-71
2022/09/27 01:35:39;;;;;;;;;;;;;;;;;;5087678;28;19990;-71
2022/09/27 01:38:06;;;;;;;;;;;;;;;;;;5084392;28;20380;-71
2022/09/27 01:40:33;;;;;;;;;;;;;;;;;;5081783;28;19928;-71
2022/09/27 01:43:00;;;;;;;;;;;;;;;;;;5086272;28;20394;-71
2022/09/27 01:45:27;;;;;;;;;;;;;;;;;;5083699;28;19940;-70
2022/09/27 01:47:54;;;;;;;;;;;;;;;;;;5087039;28;19935;-71
2022/09/27 01:50:21;;;;;;;;;;;;;;;;;;5084791;28;19985;-71
2022/09/27 01:52:48;;;;;;;;;;;;;;;;;;5087351;28;19924;-71
2022/09/27 01:55:15;;;;;;;;;;;;;;;;;;5080544;28;20310;-71
2022/09/27 01:57:42;;;;;;;;;;;;;;;;;;5089786;28;19928;-71
2022/09/27 02:00:09;;;;;;;;;;;;;;;;;;5088093;28;19935;-71
2022/09/27 02:02:36;;;;;;;;;;;;;;;;;;5078034;28;20294;-71
2022/09/27 02:05:03;;;;;;;;;;;;;;;;;;5088063;28;19950;-71
2022/09/27 02:07:30;;;;;;;;;;;;;;;;;;5085415;28;19923;-71
2022/09/27 02:09:57;;;;;;;;;;;;;;;;;;5083669;28;19954;-71
2022/09/27 02:12:24;;;;;;;;;;;;;;;;;;5075825;28;19931;-71
2022/09/27 02:14:51;;;;;;;;;;;;;;;;;;5082911;28;20391;-71
2022/09/27 02:17:18;;;;;;;;;;;;;;;;;;5071376;28;19951;-71
2022/09/27 02:19:47;;;;;;;;;;;;;;;;;;5075329;28;19939;-72
2022/09/27 02:22:14;;;;;;;;;;;;;;;;;;5085736;28;19925;-71
2022/09/27 02:24:41;;;;;;;;;;;;;;;;;;5079308;28;19924;-71
2022/09/27 02:27:09;;;;;;;;;;;;;;;;;;5077614;28;19928;-71
2022/09/27 02:29:36;;;;;;;;;;;;;;;;;;5081114;28;19971;-70
2022/09/27 02:32:03;;;;;;;;;;;;;;;;;;5088261;28;19936;-70
2022/09/27 02:34:30;;;;;;;;;;;;;;;;;;5084348;28;19939;-69
2022/09/27 02:36:57;;;;;;;;;;;;;;;;;;5080906;28;20541;-70
2022/09/27 02:39:24;;;;;;;;;;;;;;;;;;5079349;28;19929;-70
2022/09/27 02:41:51;;;;;;;;;;;;;;;;;;5081309;28;20445;-70
2022/09/27 02:44:18;;;;;;;;;;;;;;;;;;5084710;28;19924;-70
2022/09/27 02:46:46;;;;;;;;;;;;;;;;;;5089869;28;19927;-70
2022/09/27 02:49:13;;;;;;;;;;;;;;;;;;5085603;28;20502;-70
2022/09/27 02:51:40;;;;;;;;;;;;;;;;;;5088776;28;19924;-70
2022/09/27 02:54:07;;;;;;;;;;;;;;;;;;5088351;28;19928;-70
2022/09/27 02:56:34;;;;;;;;;;;;;;;;;;5088141;28;19924;-70
2022/09/27 02:59:01;;;;;;;;;;;;;;;;;;5089369;28;20286;-70
2022/09/27 03:01:29;;;;;;;;;;;;;;;;;;5084267;28;19928;-70
2022/09/27 03:03:56;;;;;;;;;;;;;;;;;;5090099;28;19935;-70
2022/09/27 03:06:23;;;;;;;;;;;;;;;;;;5072858;28;20372;-70
2022/09/27 03:08:50;;;;;;;;;;;;;;;;;;5088690;28;20283;-71
2022/09/27 03:11:17;;;;;;;;;;;;;;;;;;5087330;28;19939;-70
2022/09/27 03:13:44;;;;;;;;;;;;;;;;;;5092174;28;20431;-71
2022/09/27 03:16:11;;;;;;;;;;;;;;;;;;5089867;28;19924;-71
2022/09/27 03:18:38;;;;;;;;;;;;;;;;;;5086082;28;19924;-70
2022/09/27 03:21:05;;;;;;;;;;;;;;;;;;5073833;28;19923;-71
2022/09/27 03:23:32;;;;;;;;;;;;;;;;;;5069170;28;19928;-71
2022/09/27 03:25:59;;;;;;;;;;;;;;;;;;5090344;28;19954;-71
2022/09/27 03:28:28;;;;;;;;;;;;;;;;;;5081500;28;19925;-71
2022/09/27 03:30:55;;;;;;;;;;;;;;;;;;5060213;28;20610;-71
2022/09/27 03:33:22;;;;;;;;;;;;;;;;;;5080747;28;19928;-71
2022/09/27 03:35:49;;;;;;;;;;;;;;;;;;5065165;28;20011;-71
2022/09/27 03:38:16;;;;;;;;;;;;;;;;;;5085986;28;20279;-71
2022/09/27 03:40:43;;;;;;;;;;;;;;;;;;5085650;28;20335;-71
2022/09/27 03:43:10;;;;;;;;;;;;;;;;;;5084395;28;20382;-71
2022/09/27 03:45:37;;;;;;;;;;;;;;;;;;5079804;28;19936;-71
2022/09/27 03:48:04;;;;;;;;;;;;;;;;;;5083873;28;20407;-71
2022/09/27 03:50:31;;;;;;;;;;;;;;;;;;5082190;28;20370;-71
2022/09/27 03:52:58;;;;;;;;;;;;;;;;;;5086081;28;19935;-71
2022/09/27 03:55:25;;;;;;;;;;;;;;;;;;5082523;28;19928;-71
2022/09/27 03:57:52;;;;;;;;;;;;;;;;;;5086535;28;19932;-71
2022/09/27 04:00:19;;;;;;;;;;;;;;;;;;5086249;28;19932;-71
2022/09/27 04:02:47;;;;;;;;;;;;;;;;;;5088053;28;19928;-71
2022/09/27 04:05:14;;;;;;;;;;;;;;;;;;5076565;28;19931;-71
2022/09/27 04:07:41;;;;;;;;;;;;;;;;;;5079736;28;20386;-70
2022/09/27 04:10:09;;;;;;;;;;;;;;;;;;5079962;28;19928;-71
2022/09/27 04:12:36;;;;;;;;;;;;;;;;;;5089559;28;19924;-71
2022/09/27 04:15:03;;;;;;;;;;;;;;;;;;5086030;28;19934;-71
2022/09/27 04:17:30;;;;;;;;;;;;;;;;;;5083736;28;19950;-71
2022/09/27 04:19:57;;;;;;;;;;;;;;;;;;5087263;28;19925;-71
2022/09/27 04:22:24;;;;;;;;;;;;;;;;;;5084374;28;19928;-71
2022/09/27 04:24:51;;;;;;;;;;;;;;;;;;5085762;28;19932;-71
2022/09/27 04:27:18;;;;;;;;;;;;;;;;;;5085483;28;19936;-71
2022/09/27 04:29:45;;;;;;;;;;;;;;;;;;5082708;28;19927;-71
2022/09/27 04:32:12;;;;;;;;;;;;;;;;;;5087658;28;19924;-71
2022/09/27 04:37:24;;;;;;;;;;;;;;;;;;5073638;28;19932;-71
2022/09/27 04:39:51;;;;;;;;;;;;;;;;;;5081214;28;19928;-71
2022/09/27 04:42:18;;;;;;;;;;;;;;;;;;5070050;28;19933;-70
2022/09/27 04:44:46;;;;;;;;;;;;;;;;;;5085817;28;20016;-69
2022/09/27 04:47:13;;;;;;;;;;;;;;;;;;5088397;28;20287;-71
2022/09/27 04:49:40;;;;;;;;;;;;;;;;;;5083860;28;19931;-71
2022/09/27 04:52:07;;;;;;;;;;;;;;;;;;5087693;28;20543;-71
2022/09/27 04:54:34;;;;;;;;;;;;;;;;;;5091228;28;19935;-72
2022/09/27 04:57:01;;;;;;;;;;;;;;;;;;5091403;28;19925;-71
2022/09/27 04:59:28;;;;;;;;;;;;;;;;;;5089256;28;19939;-72
2022/09/27 05:01:58;;;;;;;;;;;;;;;;;;5091876;28;19928;-68
2022/09/27 05:04:25;;;;;;;;;;;;;;;;;;5091655;28;19973;-71
2022/09/27 05:06:52;;;;;;;;;;;;;;;;;;5091500;28;19924;-71
2022/09/27 05:09:19;;;;;;;;;;;;;;;;;;5093099;28;19954;-71
2022/09/27 05:11:46;;;;;;;;;;;;;;;;;;5090026;28;19924;-71
2022/09/27 05:14:13;;;;;;;;;;;;;;;;;;5092455;28;20499;-71
2022/09/27 05:16:40;;;;;;;;;;;;;;;;;;5085468;28;20297;-71
2022/09/27 05:19:07;;;;;;;;;;;;;;;;;;5090957;28;19924;-71
2022/09/27 05:21:34;;;;;;;;;;;;;;;;;;5086406;28;19928;-71
2022/09/27 05:24:01;;;;;;;;;;;;;;;;;;5086908;28;19935;-70
2022/09/27 05:26:28;;;;;;;;;;;;;;;;;;5089499;28;19932;-66
2022/09/27 05:28:55;;;;;;;;;;;;;;;;;;5091879;28;20298;-66
2022/09/27 05:31:22;;;;;;;;;;;;;;;;;;5098113;28;19927;-67
2022/09/27 05:33:49;;;;;;;;;;;;;;;;;;5089319;28;19943;-68
2022/09/27 05:36:16;;;;;;;;;;;;;;;;;;5086148;28;19927;-67
2022/09/27 05:38:44;;;;;;;;;;;;;;;;;;5093155;28;19928;-66
2022/09/27 05:41:12;;;;;;;;;;;;;;;;;;5087782;28;19955;-67
2022/09/27 05:43:39;;;;;;;;;;;;;;;;;;5088870;28;20562;-66
2022/09/27 05:46:06;;;;;;;;;;;;;;;;;;5091134;28;19928;-66
2022/09/27 05:48:33;;;;;;;;;;;;;;;;;;5089322;28;19932;-65
2022/09/27 05:51:00;;;;;;;;;;;;;;;;;;5087704;28;19936;-67
2022/09/27 05:53:27;;;;;;;;;;;;;;;;;;5086589;28;20457;-65
2022/09/27 05:55:54;;;;;;;;;;;;;;;;;;5089133;28;19928;-66
2022/09/27 05:58:21;;;;;;;;;;;;;;;;;;5086108;28;19994;-65
2022/09/27 06:00:48;;;;;;;;;;;;;;;;;;5086915;28;20671;-66
2022/09/27 06:03:15;;;;;;;;;;;;;;;;;;5082508;28;19932;-66
2022/09/27 06:05:42;;;;;;;;;;;;;;;;;;5078184;28;20298;-65
2022/09/27 06:08:09;;;;;;;;;;;;;;;;;;5085588;28;19940;-65
2022/09/27 06:10:36;;;;;;;;;;;;;;;;;;5091901;28;19924;-65
2022/09/27 06:13:03;;;;;;;;;;;;;;;;;;5087156;28;20625;-65
2022/09/27 06:15:30;;;;;;;;;;;;;;;;;;5087451;28;21103;-64
2022/09/27 06:17:58;;;;;;;;;;;;;;;;;;5087958;28;19931;-67
2022/09/27 06:20:25;;;;;;;;;;;;;;;;;;5079490;28;20295;-66
2022/09/27 06:22:52;;;;;;;;;;;;;;;;;;5082198;28;19932;-66
2022/09/27 06:25:20;;;;;;;;;;;;;;;;;;5072354;28;19924;-65
2022/09/27 06:27:47;;;;;;;;;;;;;;;;;;5080085;28;19967;-65
2022/09/27 06:30:14;;;;;;;;;;;;;;;;;;5076448;28;21155;-66
2022/09/27 06:32:41;;;;;;;;;;;;;;;;;;5075542;28;19932;-67
2022/09/27 06:35:08;;;;;;;;;;;;;;;;;;5086560;28;20489;-65
2022/09/27 06:37:35;;;;;;;;;;;;;;;;;;5088778;28;19927;-68
2022/09/27 06:40:02;;;;;;;;;;;;;;;;;;5089741;28;20034;-65
2022/09/27 06:42:29;;;;;;;;;;;;;;;;;;5082417;28;19980;-67
2022/09/27 06:44:56;;;;;;;;;;;;;;;;;;5087422;28;20019;-66
2022/09/27 06:47:26;;;;;;;;;;;;;;;;;;5090102;28;19932;-65
2022/09/27 06:49:53;;;;;;;;;;;;;;;;;;5087069;28;19979;-66
2022/09/27 06:52:20;;;;;;;;;;;;;;;;;;5084923;28;20389;-65
2022/09/27 06:54:47;;;;;;;;;;;;;;;;;;5090329;28;19931;-66
2022/09/27 07:00:22;;;;;;;;;;;;;;;;;;5087050;28;19936;-67
2022/09/27 07:02:46;;;;;;;;;;;;;;;;;;5082046;28;19920;-67
2022/09/27 07:05:13;;;;;;;;;;;;;;;;;;5075615;28;19924;-66
2022/09/27 07:07:41;;;;;;;;;;;;;;;;;;5077222;28;20374;-65
2022/09/27 07:10:08;;;;;;;;;;;;;;;;;;5074178;28;19928;-64
2022/09/27 07:12:35;;;;;;;;;;;;;;;;;;5078256;28;19924;-65
2022/09/27 07:15:02;;;;;;;;;;;;;;;;;;5080944;28;19932;-65
2022/09/27 07:17:29;;;;;;;;;;;;;;;;;;5074717;28;20325;-66
2022/09/27 07:19:56;;;;;;;;;;;;;;;;;;5077647;28;19928;-65
2022/09/27 07:22:23;;;;;;;;;;;;;;;;;;5077306;28;19967;-65
2022/09/27 07:24:50;;;;;;;;;;;;;;;;;;5076830;28;19935;-65
2022/09/27 07:27:17;;;;;;;;;;;;;;;;;;5073488;28;20362;-65
2022/09/27 07:29:44;;;;;;;;;;;;;;;;;;5076219;28;19928;-65
2022/09/27 07:32:11;;;;;;;;;;;;;;;;;;5077107;28;19928;-67
2022/09/27 07:34:38;;;;;;;;;;;;;;;;;;5075452;28;19931;-66
2022/09/27 07:37:05;;;;;;;;;;;;;;;;;;5077038;28;19924;-65
2022/09/27 07:39:32;;;;;;;;;;;;;;;;;;5079544;28;19925;-66
2022/09/27 07:42:01;;;;;;;;;;;;;;;;;;5082314;28;19948;-65
2022/09/27 07:44:28;;;;;;;;;;;;;;;;;;5081877;28;20394;-66
2022/09/27 07:46:55;;;;;;;;;;;;;;;;;;5088493;28;19932;-67
2022/09/27 07:49:22;;;;;;;;;;;;;;;;;;5085280;28;19951;-65
2022/09/27 07:51:50;;;;;;;;;;;;;;;;;;5085496;28;20001;-66
2022/09/27 07:54:17;;;;;;;;;;;;;;;;;;5089768;28;19928;-65
2022/09/27 07:56:44;;;;;;;;;;;;;;;;;;5083127;28;20658;-65
2022/09/27 07:59:11;;;;;;;;;;;;;;;;;;5086823;28;19935;-68
2022/09/27 08:01:38;;;;;;;;;;;;;;;;;;5085229;28;20283;-66
2022/09/27 08:04:05;;;;;;;;;;;;;;;;;;5090532;28;19965;-65
2022/09/27 08:06:32;;;;;;;;;;;;;;;;;;5085637;28;20027;-65
2022/09/27 08:09:00;;;;;;;;;;;;;;;;;;5088444;28;19985;-66
2022/09/27 08:11:27;;;;;;;;;;;;;;;;;;5089697;28;19935;-65
2022/09/27 08:13:55;;;;;;;;;;;;;;;;;;5093553;28;19929;-66
2022/09/27 08:16:23;;;;;;;;;;;;;;;;;;5086364;28;19924;-67
2022/09/27 08:18:50;;;;;;;;;;;;;;;;;;5073622;28;20543;-66
2022/09/27 08:21:17;;;;;;;;;;;;;;;;;;5089139;28;19932;-65
2022/09/27 08:23:44;;;;;;;;;;;;;;;;;;5085411;28;19924;-65
2022/09/27 08:26:11;;;;;;;;;;;;;;;;;;5083266;28;19938;-69
2022/09/27 08:28:38;;;;;;;;;;;;;;;;;;5071713;28;19932;-65
2022/09/27 08:31:05;;;;;;;;;;;;;;;;;;5086002;28;19958;-67
2022/09/27 08:33:32;;;;;;;;;;;;;;;;;;5080790;28;19924;-65
2022/09/27 08:35:59;;;;;;;;;;;;;;;;;;5076730;28;19932;-66
2022/09/27 08:38:26;;;;;;;;;;;;;;;;;;5083717;28;20394;-65
2022/09/27 08:40:53;;;;;;;;;;;;;;;;;;5083123;28;19931;-68
2022/09/27 08:43:20;;;;;;;;;;;;;;;;;;5082382;28;20302;-65
2022/09/27 08:45:47;;;;;;;;;;;;;;;;;;5082575;28;19931;-64
2022/09/27 08:48:14;;;;;;;;;;;;;;;;;;5084588;28;19928;-66
2022/09/27 08:50:41;;;;;;;;;;;;;;;;;;5082926;28;20516;-66
2022/09/27 08:53:08;;;;;;;;;;;;;;;;;;5085357;28;19924;-65
2022/09/27 08:55:36;;;;;;;;;;;;;;;;;;5081407;28;19924;-65
2022/09/27 08:58:03;;;;;;;;;;;;;;;;;;5090616;28;19954;-66
2022/09/27 09:00:30;;;;;;;;;;;;;;;;;;5089672;28;19936;-68
2022/09/27 09:02:57;;;;;;;;;;;;;;;;;;5091725;28;19924;-65
2022/09/27 09:05:24;;;;;;;;;;;;;;;;;;5080301;28;19929;-66
2022/09/27 09:07:51;;;;;;;;;;;;;;;;;;5091571;28;20576;-66
2022/09/27 09:12:45;;;;;;;;;;;;;;;;;;5080825;28;20304;-65
2022/09/27 09:13:04;;;;;;;;;;;;;;;;;;5074961;28;19931;-66
2022/09/27 09:15:32;;;;;;;;;;;;;;;;;;5089217;28;19947;-65
2022/09/27 09:17:59;;;;;;;;;;;;;;;;;;5089275;28;19928;-65
2022/09/27 09:20:26;;;;;;;;;;;;;;;;;;5081401;28;19985;-66
2022/09/27 09:22:53;;;;;;;;;;;;;;;;;;5073692;28;19979;-65
2022/09/27 09:25:20;;;;;;;;;;;;;;;;;;5085671;28;19989;-67
2022/09/27 09:27:47;;;;;;;;;;;;;;;;;;5080488;28;19932;-66
2022/09/27 09:30:14;;;;;;;;;;;;;;;;;;5078727;28;19924;-65
2022/09/27 09:32:44;;;;;;;;;;;;;;;;;;5083245;28;19974;-66
2022/09/27 09:35:11;;;;;;;;;;;;;;;;;;5083892;28;21182;-66
2022/09/27 09:37:38;;;;;;;;;;;;;;;;;;5090920;28;19925;-66
2022/09/27 09:40:07;;;;;;;;;;;;;;;;;;5083581;28;19931;-66
2022/09/27 09:42:34;;;;;;;;;;;;;;;;;;5083429;28;20007;-66
2022/09/27 09:45:01;;;;;;;;;;;;;;;;;;5088600;28;19932;-66
2022/09/27 09:47:28;;;;;;;;;;;;;;;;;;5082147;28;19931;-66
2022/09/27 09:49:55;;;;;;;;;;;;;;;;;;5089636;28;20390;-65
2022/09/27 09:52:22;;;;;;;;;;;;;;;;;;5088468;28;19928;-65
2022/09/27 09:54:49;;;;;;;;;;;;;;;;;;5086662;28;20317;-66
2022/09/27 09:57:16;;;;;;;;;;;;;;;;;;5084071;28;19927;-66
2022/09/27 09:59:44;;;;;;;;;;;;;;;;;;5088088;28;20538;-66
2022/09/27 10:02:11;;;;;;;;;;;;;;;;;;5083381;28;19936;-69
2022/09/27 10:04:38;;;;;;;;;;;;;;;;;;5088697;28;19931;-65
2022/09/27 10:07:05;;;;;;;;;;;;;;;;;;5085282;28;19928;-65
2022/09/27 10:09:32;;;;;;;;;;;;;;;;;;5082295;28;19928;-65
2022/09/27 10:11:59;;;;;;;;;;;;;;;;;;5076699;28;19939;-66
2022/09/27 10:14:26;;;;;;;;;;;;;;;;;;5085795;28;19955;-65
2022/09/27 10:16:53;;;;;;;;;;;;;;;;;;5092422;28;19924;-66
2022/09/27 10:19:21;;;;;;;;;;;;;;;;;;5085294;28;19939;-66
2022/09/27 10:21:48;;;;;;;;;;;;;;;;;;5080976;28;19989;-66
2022/09/27 10:24:15;;;;;;;;;;;;;;;;;;5079589;28;19927;-66
2022/09/27 10:26:43;;;;;;;;;;;;;;;;;;5086229;28;19928;-66
2022/09/27 10:29:10;;;;;;;;;;;;;;;;;;5085912;28;19978;-65
2022/09/27 10:31:37;;;;;;;;;;;;;;;;;;5085457;28;19935;-66
2022/09/27 10:34:05;;;;;;;;;;;;;;;;;;5086681;28;20437;-66
2022/09/27 10:36:32;;;;;;;;;;;;;;;;;;5078488;28;19928;-66
2022/09/27 10:38:59;;;;;;;;;;;;;;;;;;5074424;28;20438;-65
2022/09/27 10:41:27;;;;;;;;;;;;;;;;;;5073097;28;19930;-67
2022/09/27 10:43:54;;;;;;;;;;;;;;;;;;5077755;28;19948;-67
2022/09/27 10:46:21;;;;;;;;;;;;;;;;;;5075480;28;19932;-66
2022/09/27 10:48:50;;;;;;;;;;;;;;;;;;5075305;28;19972;-65
2022/09/27 10:51:17;;;;;;;;;;;;;;;;;;5075279;28;20027;-67
2022/09/27 10:53:44;;;;;;;;;;;;;;;;;;5078555;28;19932;-65
2022/09/27 10:56:11;;;;;;;;;;;;;;;;;;5077599;28;19924;-67
2022/09/27 10:58:38;;;;;;;;;;;;;;;;;;5079087;28;19928;-65
2022/09/27 11:01:05;;;;;;;;;;;;;;;;;;5073333;28;19935;-65
2022/09/27 11:03:32;;;;;;;;;;;;;;;;;;5077376;28;20453;-66
2022/09/27 11:06:00;;;;;;;;;;;;;;;;;;5075718;28;19924;-65
2022/09/27 11:08:27;;;;;;;;;;;;;;;;;;5074922;28;20555;-66
2022/09/27 11:10:54;;;;;;;;;;;;;;;;;;5076232;28;19928;-66
2022/09/27 11:13:21;;;;;;;;;;;;;;;;;;5076087;28;20597;-65
2022/09/27 11:15:48;;;;;;;;;;;;;;;;;;5077382;28;19935;-64
2022/09/27 11:18:15;;;;;;;;;;;;;;;;;;5071751;28;19932;-67
2022/09/27 11:20:42;;;;;;;;;;;;;;;;;;5081265;28;20298;-66
2022/09/27 11:23:09;;;;;;;;;;;;;;;;;;5090517;28;19924;-65
2022/09/27 11:25:38;;;;;;;;;;;;;;;;;;5081523;28;19928;-67
2022/09/27 11:28:05;;;;;;;;;;;;;;;;;;5074829;28;20525;-66
2022/09/27 11:30:33;;;;;;;;;;;;;;;;;;5079328;28;19935;-67
2022/09/27 11:33:00;;;;;;;;;;;;;;;;;;5084120;28;20369;-68
2022/09/27 11:35:27;;;;;;;;;;;;;;;;;;5081241;28;19939;-67
2022/09/27 11:37:54;;;;;;;;;;;;;;;;;;5082358;28;19928;-67
2022/09/27 11:40:22;;;;;;;;;;;;;;;;;;5089177;28;19936;-66
2022/09/27 11:42:49;;;;;;;;;;;;;;;;;;5088633;28;19936;-67
2022/09/27 11:45:17;;;;;;;;;;;;;;;;;;5084435;28;19969;-67
2022/09/27 11:47:46;;;;;;;;;;;;;;;;;;5090931;28;20456;-68
2022/09/27 11:50:14;;;;;;;;;;;;;;;;;;5087893;28;19951;-67
2022/09/27 11:52:41;;;;;;;;;;;;;;;;;;5090264;28;19939;-65
2022/09/27 11:55:08;;;;;;;;;;;;;;;;;;5088968;28;19923;-66
2022/09/27 11:57:35;;;;;;;;;;;;;;;;;;5086398;28;19971;-65
2022/09/27 12:00:04;;;;;;;;;;;;;;;;;;5087569;28;19929;-65
2022/09/27 12:02:31;;;;;;;;;;;;;;;;;;5086052;28;19978;-67
2022/09/27 12:04:58;;;;;;;;;;;;;;;;;;5085924;28;20397;-66
2022/09/27 12:07:25;;;;;;;;;;;;;;;;;;5088734;28;19928;-65
2022/09/27 12:09:52;;;;;;;;;;;;;;;;;;5090183;28;19928;-66
2022/09/27 12:12:19;;;;;;;;;;;;;;;;;;5084897;28;19924;-66
2022/09/27 12:14:46;;;;;;;;;;;;;;;;;;5091060;28;19927;-66
2022/09/27 12:17:13;;;;;;;;;;;;;;;;;;5086252;28;19989;-66
2022/09/27 12:19:40;;;;;;;;;;;;;;;;;;5090010;28;20302;-66
2022/09/27 12:22:07;;;;;;;;;;;;;;;;;;5084973;28;19935;-66
2022/09/27 12:24:34;;;;;;;;;;;;;;;;;;5074097;28;20016;-66
2022/09/27 12:27:02;;;;;;;;;;;;;;;;;;5079218;28;19932;-66
2022/09/27 12:29:30;;;;;;;;;;;;;;;;;;5079258;28;19924;-67
2022/09/27 12:31:57;;;;;;;;;;;;;;;;;;5074324;28;19936;-67
2022/09/27 12:34:24;;;;;;;;;;;;;;;;;;5080784;28;19939;-67
2022/09/27 12:36:51;;;;;;;;;;;;;;;;;;5079540;28;19936;-67
2022/09/27 12:39:18;;;;;;;;;;;;;;;;;;5085852;28;19935;-66
2022/09/27 12:41:45;;;;;;;;;;;;;;;;;;5082183;28;19932;-67
2022/09/27 12:44:12;;;;;;;;;;;;;;;;;;5084015;28;19925;-65
2022/09/27 12:46:39;;;;;;;;;;;;;;;;;;5082613;28;19924;-66
2022/09/27 12:49:08;;;;;;;;;;;;;;;;;;5087779;28;20517;-65
2022/09/27 12:51:35;;;;;;;;;;;;;;;;;;5084447;28;20015;-67
2022/09/27 12:54:02;;;;;;;;;;;;;;;;;;5091384;28;20063;-67
2022/09/27 12:56:29;;;;;;;;;;;;;;;;;;5088419;28;19930;-66
2022/09/27 12:58:56;;;;;;;;;;;;;;;;;;5084681;28;19928;-66
2022/09/27 13:01:26;;;;;;;;;;;;;;;;;;5086473;28;20371;-66
2022/09/27 13:03:53;;;;;;;;;;;;;;;;;;5088588;28;19928;-65
2022/09/27 13:06:20;;;;;;;;;;;;;;;;;;5088004;28;20708;-65
2022/09/27 13:08:47;;;;;;;;;;;;;;;;;;5091274;28;19975;-65
2022/09/27 13:11:14;;;;;;;;;;;;;;;;;;5087415;28;19932;-66
2022/09/27 13:13:41;;;;;;;;;;;;;;;;;;5077925;28;19932;-66
2022/09/27 13:16:08;;;;;;;;;;;;;;;;;;5087178;28;20057;-68
2022/09/27 13:18:36;;;;;;;;;;;;;;;;;;5088876;28;20055;-67
2022/09/27 13:21:03;;;;;;;;;;;;;;;;;;5089731;28;19931;-68
2022/09/27 13:23:30;;;;;;;;;;;;;;;;;;5066567;28;19928;-67
2022/09/27 13:25:59;;;;;;;;;;;;;;;;;;5089113;28;19927;-66
2022/09/27 13:28:26;;;;;;;;;;;;;;;;;;5086681;28;19990;-66
2022/09/27 13:30:53;;;;;;;;;;;;;;;;;;5088019;28;19974;-66
2022/09/27 13:33:20;;;;;;;;;;;;;;;;;;5091650;28;20382;-65
2022/09/27 13:35:47;;;;;;;;;;;;;;;;;;5093669;28;19928;-66
2022/09/27 13:38:14;;;;;;;;;;;;;;;;;;5091283;28;19931;-67
2022/09/27 13:40:41;;;;;;;;;;;;;;;;;;5067733;28;19939;-66
2022/09/27 13:43:08;;;;;;;;;;;;;;;;;;5091285;28;20726;-66
2022/09/27 13:45:36;;;;;;;;;;;;;;;;;;5090698;28;19931;-67
2022/09/27 13:48:03;;;;;;;;;;;;;;;;;;5089726;28;19971;-67
2022/09/27 13:50:30;;;;;;;;;;;;;;;;;;5094355;28;20417;-66
2022/09/27 13:52:57;;;;;;;;;;;;;;;;;;5091151;28;19924;-67
2022/09/27 13:55:24;;;;;;;;;;;;;;;;;;5090598;28;20309;-66
2022/09/27 13:57:51;;;;;;;;;;;;;;;;;;5094469;28;20390;-68
2022/09/27 14:00:20;;;;;;;;;;;;;;;;;;5089797;28;19982;-67
2022/09/27 14:02:47;;;;;;;;;;;;;;;;;;5089778;28;19934;-66
2022/09/27 14:05:14;;;;;;;;;;;;;;;;;;5090587;28;19935;-66
2022/09/27 14:07:41;;;;;;;;;;;;;;;;;;5091350;28;19936;-68
2022/09/27 14:10:09;;;;;;;;;;;;;;;;;;5081227;28;20010;-66
2022/09/27 14:12:36;;;;;;;;;;;;;;;;;;5081960;28;20465;-67
2022/09/27 14:15:03;;;;;;;;;;;;;;;;;;5088952;28;19935;-66
2022/09/27 14:17:30;;;;;;;;;;;;;;;;;;5083470;28;19947;-67
2022/09/27 14:19:57;;;;;;;;;;;;;;;;;;5088142;28;19928;-67
2022/09/27 14:22:24;;;;;;;;;;;;;;;;;;5084755;28;20272;-65
2022/09/27 14:24:51;;;;;;;;;;;;;;;;;;5087361;28;19925;-66
2022/09/27 14:27:18;;;;;;;;;;;;;;;;;;5083623;28;19959;-67
2022/09/27 14:29:45;;;;;;;;;;;;;;;;;;5088360;28;20382;-67
2022/09/27 14:32:12;;;;;;;;;;;;;;;;;;5084442;28;19998;-66
2022/09/27 14:34:39;;;;;;;;;;;;;;;;;;5092381;28;20389;-66
2022/09/27 14:37:24;;;;;;;;;;;;;;;;;;5087688;28;19925;-67
2022/09/27 14:39:52;;;;;;;;;;;;;;;;;;5089141;28;19920;-66
2022/09/27 14:42:19;;;;;;;;;;;;;;;;;;5088534;28;19978;-66
2022/09/27 14:44:46;;;;;;;;;;;;;;;;;;5084938;28;19971;-66
2022/09/27 14:47:14;;;;;;;;;;;;;;;;;;5087995;28;19935;-66
2022/09/27 14:49:41;;;;;;;;;;;;;;;;;;5089694;28;19924;-66
2022/09/27 14:52:09;;;;;;;;;;;;;;;;;;5090467;28;19924;-65
2022/09/27 14:54:36;;;;;;;;;;;;;;;;;;5090346;28;20587;-66
2022/09/27 14:57:04;;;;;;;;;;;;;;;;;;5087439;28;19935;-65
2022/09/27 14:59:32;;;;;;;;;;;;;;;;;;5089411;28;20294;-65
2022/09/27 15:02:00;;;;;;;;;;;;;;;;;;5088224;28;19939;-66
2022/09/27 15:04:27;;;;;;;;;;;;;;;;;;5089374;28;19928;-66
2022/09/27 15:06:54;;;;;;;;;;;;;;;;;;5087787;28;20346;-65
2022/09/27 15:09:21;;;;;;;;;;;;;;;;;;5092197;28;19935;-65
2022/09/27 15:11:50;;;;;;;;;;;;;;;;;;5081325;28;19982;-66
2022/09/27 15:14:18;;;;;;;;;;;;;;;;;;5073842;28;20348;-67
2022/09/27 15:16:46;;;;;;;;;;;;;;;;;;5077827;28;19928;-65
2022/09/27 15:19:13;;;;;;;;;;;;;;;;;;5079280;28;19939;-64
2022/09/27 15:21:40;;;;;;;;;;;;;;;;;;5076442;28;19943;-65
2022/09/27 15:24:07;;;;;;;;;;;;;;;;;;5084455;28;19936;-66
2022/09/27 15:26:34;;;;;;;;;;;;;;;;;;5084686;28;19932;-65
2022/09/27 15:29:01;;;;;;;;;;;;;;;;;;5083465;28;20007;-67
2022/09/27 15:31:28;;;;;;;;;;;;;;;;;;5083810;28;19928;-67
2022/09/27 15:33:55;;;;;;;;;;;;;;;;;;5082394;28;20036;-66
2022/09/27 15:36:22;;;;;;;;;;;;;;;;;;5073703;28;19932;-66
2022/09/27 15:38:49;;;;;;;;;;;;;;;;;;5078624;28;20398;-66
2022/09/27 15:41:17;;;;;;;;;;;;;;;;;;5072514;28;19939;-66
2022/09/27 15:43:45;;;;;;;;;;;;;;;;;;5075049;28;19932;-66
2022/09/27 15:46:12;;;;;;;;;;;;;;;;;;5074738;28;19967;-66
2022/09/27 15:48:39;;;;;;;;;;;;;;;;;;5071610;28;19928;-66
2022/09/27 15:51:06;;;;;;;;;;;;;;;;;;5084091;28;19930;-67
2022/09/27 15:53:33;;;;;;;;;;;;;;;;;;5075619;28;20018;-67
2022/09/27 15:56:00;;;;;;;;;;;;;;;;;;5073025;28;20418;-67
2022/09/27 15:58:27;;;;;;;;;;;;;;;;;;5077570;28;19936;-68
2022/09/27 16:00:54;;;;;;;;;;;;;;;;;;5076726;28;20291;-67
2022/09/27 16:03:21;;;;;;;;;;;;;;;;;;5076686;28;19942;-67
2022/09/27 16:05:48;;;;;;;;;;;;;;;;;;5073076;28;19928;-68
2022/09/27 16:08:15;;;;;;;;;;;;;;;;;;5068910;28;19935;-67
2022/09/27 16:10:42;;;;;;;;;;;;;;;;;;5076995;28;19932;-67
2022/09/27 16:13:09;;;;;;;;;;;;;;;;;;5084670;28;19989;-68
2022/09/27 16:15:36;;;;;;;;;;;;;;;;;;5079993;28;19973;-67
2022/09/27 16:18:03;;;;;;;;;;;;;;;;;;5084381;28;20248;-67
2022/09/27 16:20:30;;;;;;;;;;;;;;;;;;5086640;28;19939;-68
2022/09/27 16:22:58;;;;;;;;;;;;;;;;;;5078457;28;19949;-68
2022/09/27 16:25:25;;;;;;;;;;;;;;;;;;5081769;28;19928;-66
2022/09/27 16:27:52;;;;;;;;;;;;;;;;;;5084597;28;19931;-67
2022/09/27 16:30:20;;;;;;;;;;;;;;;;;;5082792;28;19928;-67
2022/09/27 16:32:47;;;;;;;;;;;;;;;;;;5089469;28;19932;-68
2022/09/27 16:35:14;;;;;;;;;;;;;;;;;;5082774;28;19932;-67
2022/09/27 16:37:41;;;;;;;;;;;;;;;;;;5085974;28;20387;-67
2022/09/27 16:40:08;;;;;;;;;;;;;;;;;;5087866;28;20023;-67
2022/09/27 16:42:35;;;;;;;;;;;;;;;;;;5082276;28;19928;-68
2022/09/27 16:45:02;;;;;;;;;;;;;;;;;;5076620;28;19931;-67
2022/09/27 16:47:29;;;;;;;;;;;;;;;;;;5079041;28;19936;-69
2022/09/27 16:52:42;;;;;;;;;;;;;;;;;;5092311;28;20302;-68